createdAt,value
2018-11-20T00:00:46.733Z,1003.95
2018-11-20T00:01:46.723Z,1003.91
2018-11-20T00:02:46.712Z,1003.89
2018-11-20T00:03:46.700Z,1003.85
2018-11-20T00:04:46.704Z,1003.83
2018-11-20T00:05:46.679Z,1003.84
2018-11-20T00:06:46.669Z,1003.81
2018-11-20T00:07:46.657Z,1003.79
2018-11-20T00:08:46.650Z,1003.88
2018-11-20T00:09:46.651Z,1003.80
2018-11-20T00:10:46.625Z,1003.84
2018-11-20T00:11:46.629Z,1003.75
2018-11-20T00:12:46.604Z,1003.83
2018-11-20T00:13:46.593Z,1003.71
2018-11-20T00:14:46.595Z,1003.67
2018-11-20T00:15:46.573Z,1003.65
2018-11-20T00:16:46.561Z,1003.60
2018-11-20T00:17:46.550Z,1003.61
2018-11-20T00:18:46.539Z,1003.65
2018-11-20T00:19:46.555Z,1003.73
2018-11-20T00:20:46.517Z,1003.60
2018-11-20T00:21:46.507Z,1003.55
2018-11-20T00:22:46.496Z,1003.59
2018-11-20T00:23:46.485Z,1003.62
2018-11-20T00:24:46.477Z,1003.50
2018-11-20T00:25:46.477Z,1003.48
2018-11-20T00:26:46.452Z,1003.49
2018-11-20T00:27:46.441Z,1003.40
2018-11-20T00:28:46.431Z,1003.50
2018-11-20T00:29:46.420Z,1003.44
2018-11-20T00:30:46.424Z,1003.47
2018-11-20T00:31:46.398Z,1003.41
2018-11-20T00:32:46.402Z,1003.41
2018-11-20T00:33:46.376Z,1003.39
2018-11-20T00:34:46.379Z,1003.30
2018-11-20T00:35:46.355Z,1003.21
2018-11-20T00:36:46.344Z,1003.21
2018-11-20T00:37:46.334Z,1003.27
2018-11-20T00:38:46.336Z,1003.20
2018-11-20T00:39:46.312Z,1003.16
2018-11-20T00:40:46.340Z,1003.22
2018-11-20T00:41:46.290Z,1003.16
2018-11-20T00:42:46.280Z,1003.05
2018-11-20T00:43:46.268Z,1003.10
2018-11-20T00:44:46.258Z,1003.11
2018-11-20T00:45:46.246Z,1003.00
2018-11-20T00:46:46.252Z,1003.07
2018-11-20T00:47:46.225Z,1003.04
2018-11-20T00:48:46.214Z,1003.07
2018-11-20T00:49:46.202Z,1003.10
2018-11-20T00:50:46.195Z,1003.10
2018-11-20T00:51:46.196Z,1003.07
2018-11-20T00:52:46.171Z,1003.05
2018-11-20T00:53:46.160Z,1003.08
2018-11-20T00:54:46.149Z,1003.01
2018-11-20T00:55:46.171Z,1003.15
2018-11-20T00:56:46.127Z,1003.12
2018-11-20T00:57:46.116Z,1003.11
2018-11-20T00:58:46.117Z,1003.16
2018-11-20T00:59:46.095Z,1003.03
2018-11-20T01:00:46.084Z,1003.00
2018-11-20T01:01:46.103Z,1003.03
2018-11-20T01:02:46.065Z,1002.99
2018-11-20T01:03:47.386Z,1002.99
2018-11-20T01:04:46.043Z,1002.92
2018-11-20T01:05:46.029Z,1002.97
2018-11-20T01:06:46.019Z,1002.96
2018-11-20T01:07:46.022Z,1002.93
2018-11-20T01:08:45.997Z,1002.92
2018-11-20T01:09:45.987Z,1002.87
2018-11-20T01:10:45.978Z,1002.89
2018-11-20T01:11:45.965Z,1002.97
2018-11-20T01:12:45.981Z,1002.90
2018-11-20T01:13:45.945Z,1002.88
2018-11-20T01:14:46.116Z,1002.81
2018-11-20T01:15:45.922Z,1002.84
2018-11-20T01:16:45.911Z,1002.79
2018-11-20T01:17:45.900Z,1002.77
2018-11-20T01:18:45.902Z,1002.86
2018-11-20T01:19:45.879Z,1002.81
2018-11-20T01:20:45.868Z,1002.82
2018-11-20T01:21:45.859Z,1002.81
2018-11-20T01:22:45.845Z,1002.90
2018-11-20T01:23:45.874Z,1002.82
2018-11-20T01:24:45.824Z,1002.80
2018-11-20T01:25:45.813Z,1002.88
2018-11-20T01:26:45.811Z,1002.81
2018-11-20T01:27:45.791Z,1002.82
2018-11-20T01:28:45.782Z,1002.80
2018-11-20T01:29:45.787Z,1002.79
2018-11-20T01:30:45.759Z,1002.65
2018-11-20T01:31:45.748Z,1002.80
2018-11-20T01:32:45.738Z,1002.82
2018-11-20T01:33:45.777Z,1002.75
2018-11-20T01:34:45.718Z,1002.80
2018-11-20T01:35:45.705Z,1002.73
2018-11-20T01:36:45.695Z,1002.80
2018-11-20T01:37:45.683Z,1002.74
2018-11-20T01:38:45.672Z,1002.76
2018-11-20T01:39:45.676Z,1002.70
2018-11-20T01:40:45.652Z,1002.64
2018-11-20T01:41:45.647Z,1002.67
2018-11-20T01:42:45.631Z,1002.69
2018-11-20T01:43:45.620Z,1002.65
2018-11-20T01:44:45.638Z,1002.68
2018-11-20T01:45:45.598Z,1002.79
2018-11-20T01:46:45.587Z,1002.68
2018-11-20T01:47:45.577Z,1002.64
2018-11-20T01:48:45.575Z,1002.64
2018-11-20T01:49:45.555Z,1002.67
2018-11-20T01:50:45.557Z,1002.67
2018-11-20T01:51:45.549Z,1002.69
2018-11-20T01:52:45.523Z,1002.69
2018-11-20T01:53:45.511Z,1002.69
2018-11-20T01:54:45.501Z,1002.72
2018-11-20T01:55:45.490Z,1002.65
2018-11-20T01:56:45.494Z,1002.53
2018-11-20T01:57:45.469Z,1002.61
2018-11-20T01:58:45.458Z,1002.57
2018-11-20T01:59:45.446Z,1002.62
2018-11-20T02:00:45.436Z,1002.49
2018-11-20T02:01:45.440Z,1002.49
2018-11-20T02:02:45.415Z,1002.48
2018-11-20T02:03:45.404Z,1002.43
2018-11-20T02:04:45.392Z,1002.37
2018-11-20T02:05:45.382Z,1002.40
2018-11-20T02:06:45.384Z,1002.38
2018-11-20T02:07:45.375Z,1002.47
2018-11-20T02:08:45.350Z,1002.28
2018-11-20T02:09:45.339Z,1002.30
2018-11-20T02:10:45.327Z,1002.32
2018-11-20T02:11:45.317Z,1002.34
2018-11-20T02:12:45.321Z,1002.31
2018-11-20T02:13:45.296Z,1002.25
2018-11-20T02:14:45.298Z,1002.29
2018-11-20T02:15:45.274Z,1002.29
2018-11-20T02:16:45.265Z,1002.28
2018-11-20T02:17:45.267Z,1002.23
2018-11-20T02:18:45.241Z,1002.16
2018-11-20T02:19:45.230Z,1002.20
2018-11-20T02:20:45.218Z,1002.19
2018-11-20T02:21:45.208Z,1002.11
2018-11-20T02:22:45.211Z,1002.06
2018-11-20T02:23:45.187Z,1002.00
2018-11-20T02:24:45.176Z,1002.01
2018-11-20T02:25:45.164Z,1002.05
2018-11-20T02:26:45.155Z,1001.94
2018-11-20T02:27:45.157Z,1001.97
2018-11-20T02:28:45.133Z,1002.01
2018-11-20T02:29:45.123Z,1001.88
2018-11-20T02:30:45.141Z,1001.87
2018-11-20T02:31:45.101Z,1001.86
2018-11-20T02:32:45.090Z,1001.82
2018-11-20T02:33:45.082Z,1001.82
2018-11-20T02:34:45.068Z,1001.93
2018-11-20T02:35:45.060Z,1001.86
2018-11-20T02:36:45.065Z,1001.86
2018-11-20T02:37:45.049Z,1001.85
2018-11-20T02:38:45.039Z,1001.85
2018-11-20T02:39:45.014Z,1001.75
2018-11-20T02:40:45.003Z,1001.71
2018-11-20T02:41:44.993Z,1001.75
2018-11-20T02:42:44.980Z,1001.76
2018-11-20T02:43:44.989Z,1001.71
2018-11-20T02:44:44.964Z,1001.76
2018-11-20T02:45:44.962Z,1001.62
2018-11-20T02:46:44.938Z,1001.67
2018-11-20T02:47:44.927Z,1001.64
2018-11-20T02:48:44.931Z,1001.62
2018-11-20T02:49:44.906Z,1001.63
2018-11-20T02:50:44.909Z,1001.54
2018-11-20T02:51:44.885Z,1001.43
2018-11-20T02:52:44.874Z,1001.54
2018-11-20T02:53:44.881Z,1001.44
2018-11-20T02:54:44.853Z,1001.46
2018-11-20T02:55:44.841Z,1001.43
2018-11-20T02:56:44.830Z,1001.41
2018-11-20T02:57:44.819Z,1001.41
2018-11-20T02:58:44.839Z,1001.26
2018-11-20T02:59:44.807Z,1001.33
2018-11-20T03:00:44.787Z,1001.36
2018-11-20T03:01:44.776Z,1001.27
2018-11-20T03:02:44.765Z,1001.28
2018-11-20T03:03:44.900Z,1001.25
2018-11-20T03:04:44.758Z,1001.23
2018-11-20T03:05:44.736Z,1001.26
2018-11-20T03:06:44.722Z,1001.26
2018-11-20T03:07:44.712Z,1001.24
2018-11-20T03:08:44.716Z,1001.22
2018-11-20T03:09:44.691Z,1001.34
2018-11-20T03:10:44.679Z,1001.28
2018-11-20T03:11:44.668Z,1001.30
2018-11-20T03:12:44.657Z,1001.29
2018-11-20T03:13:44.661Z,1001.24
2018-11-20T03:14:44.650Z,1001.33
2018-11-20T03:15:44.639Z,1001.19
2018-11-20T03:16:44.614Z,1001.18
2018-11-20T03:17:44.603Z,1001.22
2018-11-20T03:18:44.593Z,1001.20
2018-11-20T03:19:44.596Z,1001.11
2018-11-20T03:20:44.573Z,1001.03
2018-11-20T03:21:44.560Z,1001.08
2018-11-20T03:22:44.550Z,1001.09
2018-11-20T03:23:44.539Z,1001.10
2018-11-20T03:24:44.556Z,1001.11
2018-11-20T03:25:44.518Z,1001.00
2018-11-20T03:26:44.560Z,1001.19
2018-11-20T03:27:44.496Z,1001.04
2018-11-20T03:28:44.485Z,1001.19
2018-11-20T03:29:44.475Z,1001.19
2018-11-20T03:30:44.479Z,1001.25
2018-11-20T03:31:44.454Z,1001.26
2018-11-20T03:32:44.444Z,1001.27
2018-11-20T03:33:44.432Z,1001.20
2018-11-20T03:34:44.419Z,1001.23
2018-11-20T03:35:44.422Z,1001.25
2018-11-20T03:36:44.398Z,1001.18
2018-11-20T03:37:44.387Z,1001.17
2018-11-20T03:38:44.378Z,1001.15
2018-11-20T03:39:44.365Z,1001.11
2018-11-20T03:40:44.370Z,1001.16
2018-11-20T03:41:44.358Z,1001.17
2018-11-20T03:42:44.334Z,1001.07
2018-11-20T03:43:44.324Z,1001.15
2018-11-20T03:44:44.311Z,1001.09
2018-11-20T03:45:44.300Z,1001.08
2018-11-20T03:46:44.330Z,1001.05
2018-11-20T03:47:44.319Z,1001.05
2018-11-20T03:48:44.268Z,1001.10
2018-11-20T03:49:44.257Z,1001.14
2018-11-20T03:50:44.246Z,1001.21
2018-11-20T03:51:44.304Z,1001.24
2018-11-20T03:52:44.257Z,1001.15
2018-11-20T03:53:44.214Z,1001.19
2018-11-20T03:54:44.204Z,1001.16
2018-11-20T03:55:44.193Z,1001.19
2018-11-20T03:56:44.182Z,1001.19
2018-11-20T03:57:44.171Z,1001.18
2018-11-20T03:58:44.174Z,1001.17
2018-11-20T03:59:44.150Z,1001.18
2018-11-20T04:00:44.138Z,1001.19
2018-11-20T04:01:44.142Z,1001.28
2018-11-20T04:02:44.119Z,1001.17
2018-11-20T04:03:44.108Z,1001.14
2018-11-20T04:04:44.126Z,1001.07
2018-11-20T04:05:44.085Z,1001.07
2018-11-20T04:06:44.074Z,1001.10
2018-11-20T04:07:44.066Z,1001.06
2018-11-20T04:08:44.055Z,1001.05
2018-11-20T04:09:44.074Z,1000.99
2018-11-20T04:10:44.062Z,1000.97
2018-11-20T04:11:44.025Z,1001.02
2018-11-20T04:12:44.016Z,1001.11
2018-11-20T04:13:43.998Z,1000.90
2018-11-20T04:14:43.987Z,1000.97
2018-11-20T04:15:43.977Z,1001.01
2018-11-20T04:16:43.993Z,1001.01
2018-11-20T04:17:44.013Z,1000.95
2018-11-20T04:18:43.943Z,1000.95
2018-11-20T04:19:43.936Z,1000.96
2018-11-20T04:20:43.923Z,1000.99
2018-11-20T04:21:43.910Z,1000.97
2018-11-20T04:22:43.915Z,1000.90
2018-11-20T04:23:43.890Z,1000.90
2018-11-20T04:24:43.879Z,1000.96
2018-11-20T04:25:43.886Z,1000.91
2018-11-20T04:26:43.857Z,1000.74
2018-11-20T04:27:43.846Z,1000.91
2018-11-20T04:28:43.842Z,1000.86
2018-11-20T04:29:43.838Z,1000.82
2018-11-20T04:30:43.829Z,1000.84
2018-11-20T04:31:43.805Z,1000.81
2018-11-20T04:32:43.795Z,1000.81
2018-11-20T04:33:43.785Z,1000.81
2018-11-20T04:34:43.770Z,1000.83
2018-11-20T04:35:43.792Z,1000.81
2018-11-20T04:36:43.750Z,1000.78
2018-11-20T04:37:43.738Z,1000.78
2018-11-20T04:38:43.726Z,1000.73
2018-11-20T04:39:43.730Z,1000.84
2018-11-20T04:40:43.706Z,1000.79
2018-11-20T04:41:43.709Z,1000.77
2018-11-20T04:42:43.684Z,1000.71
2018-11-20T04:43:43.674Z,1000.85
2018-11-20T04:44:43.662Z,1000.73
2018-11-20T04:45:43.665Z,1000.75
2018-11-20T04:46:43.641Z,1000.78
2018-11-20T04:47:43.666Z,1000.84
2018-11-20T04:48:43.619Z,1000.81
2018-11-20T04:49:43.656Z,1000.82
2018-11-20T04:50:43.598Z,1000.70
2018-11-20T04:51:43.587Z,1000.64
2018-11-20T04:52:43.579Z,1000.68
2018-11-20T04:53:43.579Z,1000.69
2018-11-20T04:54:43.555Z,1000.63
2018-11-20T04:55:43.544Z,1000.68
2018-11-20T04:56:43.823Z,1000.65
2018-11-20T04:57:43.652Z,1000.63
2018-11-20T04:58:43.514Z,1000.68
2018-11-20T04:59:43.527Z,1000.52
2018-11-20T05:00:43.490Z,1000.31
2018-11-20T05:01:43.493Z,1000.62
2018-11-20T05:02:43.469Z,1000.63
2018-11-20T05:03:43.463Z,1000.53
2018-11-20T05:04:43.446Z,1000.49
2018-11-20T05:05:43.471Z,1000.51
2018-11-20T05:06:43.479Z,1000.57
2018-11-20T05:07:43.414Z,1000.55
2018-11-20T05:08:43.409Z,1000.57
2018-11-20T05:09:43.392Z,1000.62
2018-11-20T05:10:43.382Z,1000.60
2018-11-20T05:11:43.385Z,1000.56
2018-11-20T05:12:43.360Z,1000.66
2018-11-20T05:13:43.352Z,1000.49
2018-11-20T05:14:43.338Z,1000.60
2018-11-20T05:15:43.327Z,1000.49
2018-11-20T05:16:43.330Z,1000.55
2018-11-20T05:17:43.306Z,1000.46
2018-11-20T05:18:43.309Z,1000.45
2018-11-20T05:19:43.284Z,1000.41
2018-11-20T05:20:43.273Z,1000.44
2018-11-20T05:21:43.276Z,1000.40
2018-11-20T05:22:43.252Z,1000.35
2018-11-20T05:23:43.256Z,1000.40
2018-11-20T05:24:43.229Z,1000.33
2018-11-20T05:25:43.233Z,1000.41
2018-11-20T05:26:43.208Z,1000.49
2018-11-20T05:27:43.199Z,1000.42
2018-11-20T05:28:43.187Z,1000.52
2018-11-20T05:29:43.191Z,1000.51
2018-11-20T05:30:43.197Z,1000.47
2018-11-20T05:31:43.155Z,1000.61
2018-11-20T05:32:43.160Z,1000.60
2018-11-20T05:33:43.139Z,1000.57
2018-11-20T05:34:43.140Z,1000.55
2018-11-20T05:35:43.125Z,1000.50
2018-11-20T05:36:43.101Z,1000.54
2018-11-20T05:37:43.090Z,1000.57
2018-11-20T05:38:43.086Z,1000.44
2018-11-20T05:39:43.082Z,1000.53
2018-11-20T05:40:43.058Z,1000.67
2018-11-20T05:41:43.047Z,1000.60
2018-11-20T05:42:43.038Z,1000.56
2018-11-20T05:43:43.025Z,1000.59
2018-11-20T05:44:43.028Z,1000.54
2018-11-20T05:45:43.013Z,1000.53
2018-11-20T05:46:43.050Z,1000.52
2018-11-20T05:47:42.981Z,1000.53
2018-11-20T05:48:42.970Z,1000.39
2018-11-20T05:49:42.960Z,1000.51
2018-11-20T05:50:42.950Z,1000.46
2018-11-20T05:51:42.948Z,1000.47
2018-11-20T05:52:42.928Z,1000.39
2018-11-20T05:53:42.917Z,1000.34
2018-11-20T05:54:42.906Z,1000.53
2018-11-20T05:55:42.899Z,1000.35
2018-11-20T05:56:42.897Z,1000.38
2018-11-20T05:57:42.872Z,1000.33
2018-11-20T05:58:42.862Z,1000.35
2018-11-20T05:59:42.854Z,1000.37
2018-11-20T06:00:42.842Z,1000.34
2018-11-20T06:01:42.839Z,1000.38
2018-11-20T06:02:42.819Z,1000.29
2018-11-20T06:03:42.808Z,1000.24
2018-11-20T06:04:42.797Z,1000.17
2018-11-20T06:05:42.786Z,1000.30
2018-11-20T06:06:42.786Z,1000.32
2018-11-20T06:07:42.778Z,1000.26
2018-11-20T06:08:42.754Z,1000.25
2018-11-20T06:09:42.756Z,1000.24
2018-11-20T06:10:42.732Z,1000.26
2018-11-20T06:11:42.731Z,1000.28
2018-11-20T06:12:42.785Z,1000.29
2018-11-20T06:13:42.702Z,1000.24
2018-11-20T06:14:42.690Z,1000.26
2018-11-20T06:15:42.679Z,1000.22
2018-11-20T06:16:42.668Z,1000.22
2018-11-20T06:17:42.684Z,1000.09
2018-11-20T06:18:42.698Z,1000.17
2018-11-20T06:19:42.635Z,1000.13
2018-11-20T06:20:42.627Z,1000.13
2018-11-20T06:21:42.614Z,1000.18
2018-11-20T06:22:42.605Z,1000.14
2018-11-20T06:23:42.602Z,1000.19
2018-11-20T06:24:42.583Z,1000.22
2018-11-20T06:25:42.570Z,1000.19
2018-11-20T06:26:42.561Z,1000.13
2018-11-20T06:27:42.549Z,1000.28
2018-11-20T06:28:42.636Z,1000.10
2018-11-20T06:29:42.527Z,1000.18
2018-11-20T06:30:42.524Z,1000.21
2018-11-20T06:31:42.515Z,1000.29
2018-11-20T06:32:42.495Z,1000.14
2018-11-20T06:33:42.483Z,1000.16
2018-11-20T06:34:42.534Z,1000.18
2018-11-20T06:35:42.467Z,1000.11
2018-11-20T06:36:42.453Z,1000.14
2018-11-20T06:37:42.440Z,1000.15
2018-11-20T06:38:42.429Z,1000.12
2018-11-20T06:39:42.431Z,1000.09
2018-11-20T06:40:42.430Z,999.99
2018-11-20T06:41:42.398Z,1000.05
2018-11-20T06:42:42.387Z,1000.14
2018-11-20T06:43:42.377Z,1000.10
2018-11-20T06:44:42.364Z,1000.11
2018-11-20T06:45:42.354Z,1000.11
2018-11-20T06:46:42.353Z,1000.08
2018-11-20T06:47:42.332Z,1000.08
2018-11-20T06:48:42.323Z,1000.09
2018-11-20T06:49:42.333Z,1000.08
2018-11-20T06:50:42.301Z,1000.17
2018-11-20T06:51:42.312Z,1000.06
2018-11-20T06:52:42.348Z,1000.07
2018-11-20T06:53:42.467Z,999.99
2018-11-20T06:54:42.261Z,1000.00
2018-11-20T06:55:42.249Z,1000.08
2018-11-20T06:56:42.234Z,1000.04
2018-11-20T06:57:42.234Z,1000.14
2018-11-20T06:58:42.215Z,1000.14
2018-11-20T06:59:42.204Z,1000.09
2018-11-20T07:00:42.191Z,1000.10
2018-11-20T07:01:42.348Z,1000.06
2018-11-20T07:02:42.181Z,1000.09
2018-11-20T07:03:42.159Z,1000.11
2018-11-20T07:04:42.150Z,1000.10
2018-11-20T07:05:42.139Z,1000.07
2018-11-20T07:06:42.126Z,999.92
2018-11-20T07:07:42.282Z,1000.01
2018-11-20T07:08:42.213Z,1000.07
2018-11-20T07:09:42.102Z,1000.12
2018-11-20T07:10:42.085Z,1000.17
2018-11-20T07:11:42.072Z,1000.12
2018-11-20T07:12:42.064Z,1000.20
2018-11-20T07:13:42.792Z,1000.21
2018-11-20T07:14:42.041Z,1000.22
2018-11-20T07:15:42.369Z,1000.17
2018-11-20T07:16:42.018Z,1000.24
2018-11-20T07:17:42.015Z,1000.20
2018-11-20T07:18:42.008Z,1000.23
2018-11-20T07:19:41.986Z,1000.22
2018-11-20T07:20:41.976Z,1000.17
2018-11-20T07:21:41.965Z,1000.24
2018-11-20T07:22:42.117Z,1000.13
2018-11-20T07:23:41.943Z,1000.20
2018-11-20T07:24:41.960Z,1000.20
2018-11-20T07:25:41.936Z,1000.18
2018-11-20T07:26:41.968Z,1000.20
2018-11-20T07:27:41.905Z,1000.30
2018-11-20T07:28:41.889Z,1000.21
2018-11-20T07:29:41.923Z,1000.11
2018-11-20T07:30:42.350Z,1000.19
2018-11-20T07:31:41.955Z,1000.16
2018-11-20T07:32:41.847Z,1000.16
2018-11-20T07:33:41.836Z,1000.13
2018-11-20T07:34:41.827Z,1000.10
2018-11-20T07:35:41.813Z,1000.05
2018-11-20T07:36:42.015Z,999.95
2018-11-20T07:37:41.792Z,999.95
2018-11-20T07:38:41.781Z,999.88
2018-11-20T07:39:41.770Z,999.91
2018-11-20T07:40:41.759Z,999.83
2018-11-20T07:41:41.766Z,999.85
2018-11-20T07:42:41.738Z,999.84
2018-11-20T07:43:41.833Z,999.88
2018-11-20T07:44:41.716Z,999.83
2018-11-20T07:45:41.705Z,999.84
2018-11-20T07:46:41.710Z,999.83
2018-11-20T07:47:41.684Z,999.79
2018-11-20T07:48:41.674Z,999.82
2018-11-20T07:49:41.663Z,999.80
2018-11-20T07:50:41.651Z,999.81
2018-11-20T07:51:41.715Z,999.86
2018-11-20T07:52:41.629Z,999.87
2018-11-20T07:53:41.619Z,999.89
2018-11-20T07:54:41.609Z,999.66
2018-11-20T07:55:41.601Z,999.83
2018-11-20T07:56:41.587Z,999.80
2018-11-20T07:57:41.616Z,999.80
2018-11-20T07:58:41.565Z,999.80
2018-11-20T07:59:41.554Z,999.78
2018-11-20T08:00:41.542Z,999.79
2018-11-20T08:01:41.531Z,999.83
2018-11-20T08:02:41.519Z,999.81
2018-11-20T08:03:41.525Z,999.79
2018-11-20T08:04:41.497Z,999.77
2018-11-20T08:05:41.489Z,999.72
2018-11-20T08:06:41.478Z,999.76
2018-11-20T08:07:41.468Z,999.77
2018-11-20T08:08:41.602Z,999.70
2018-11-20T08:09:41.507Z,999.69
2018-11-20T08:10:41.433Z,999.59
2018-11-20T08:11:41.427Z,999.65
2018-11-20T08:12:41.415Z,999.70
2018-11-20T08:13:41.401Z,999.78
2018-11-20T08:14:41.399Z,999.71
2018-11-20T08:15:41.389Z,999.75
2018-11-20T08:16:41.372Z,999.75
2018-11-20T08:17:42.287Z,999.80
2018-11-20T08:18:41.350Z,999.72
2018-11-20T08:19:41.350Z,999.75
2018-11-20T08:20:41.325Z,999.71
2018-11-20T08:21:41.314Z,999.72
2018-11-20T08:22:41.319Z,999.66
2018-11-20T08:23:41.292Z,999.68
2018-11-20T08:24:41.317Z,999.79
2018-11-20T08:25:41.296Z,999.79
2018-11-20T08:26:41.324Z,999.91
2018-11-20T08:27:41.248Z,999.95
2018-11-20T08:28:41.304Z,999.97
2018-11-20T08:29:41.229Z,999.92
2018-11-20T08:30:41.231Z,999.95
2018-11-20T08:31:41.205Z,999.88
2018-11-20T08:32:41.193Z,999.95
2018-11-20T08:33:41.243Z,999.87
2018-11-20T08:34:41.171Z,999.80
2018-11-20T08:35:41.189Z,999.77
2018-11-20T08:36:41.170Z,999.86
2018-11-20T08:37:41.140Z,999.91
2018-11-20T08:38:41.130Z,999.81
2018-11-20T08:39:41.117Z,999.80
2018-11-20T08:40:41.107Z,999.77
2018-11-20T08:41:41.125Z,999.73
2018-11-20T08:42:41.086Z,999.68
2018-11-20T08:43:41.074Z,999.78
2018-11-20T08:44:41.062Z,999.69
2018-11-20T08:45:41.053Z,999.77
2018-11-20T08:46:41.041Z,999.71
2018-11-20T08:47:41.060Z,999.58
2018-11-20T08:48:41.023Z,999.67
2018-11-20T08:49:41.010Z,999.72
2018-11-20T08:50:41.004Z,999.80
2018-11-20T08:51:40.987Z,999.80
2018-11-20T08:52:41.017Z,999.70
2018-11-20T08:53:41.030Z,999.66
2018-11-20T08:54:40.954Z,999.70
2018-11-20T08:55:40.943Z,999.63
2018-11-20T08:56:40.933Z,999.79
2018-11-20T08:57:40.922Z,999.64
2018-11-20T08:58:40.942Z,999.75
2018-11-20T08:59:40.903Z,999.76
2018-11-20T09:00:40.892Z,999.77
2018-11-20T09:01:40.880Z,999.76
2018-11-20T09:02:40.935Z,999.74
2018-11-20T09:03:40.856Z,999.62
2018-11-20T09:04:40.868Z,999.72
2018-11-20T09:05:40.834Z,999.74
2018-11-20T09:06:40.823Z,999.79
2018-11-20T09:07:40.812Z,999.79
2018-11-20T09:08:40.802Z,999.88
2018-11-20T09:09:40.795Z,999.96
2018-11-20T09:10:40.832Z,999.99
2018-11-20T09:11:40.773Z,1000.05
2018-11-20T09:12:40.758Z,1000.08
2018-11-20T09:13:40.748Z,1000.04
2018-11-20T09:14:40.735Z,1000.03
2018-11-20T09:15:40.725Z,1000.02
2018-11-20T09:16:40.742Z,999.97
2018-11-20T09:17:40.711Z,1000.10
2018-11-20T09:18:40.693Z,1000.10
2018-11-20T09:19:40.683Z,1000.11
2018-11-20T09:20:40.671Z,1000.11
2018-11-20T09:21:40.660Z,1000.19
2018-11-20T09:22:40.664Z,1000.15
2018-11-20T09:23:40.648Z,1000.13
2018-11-20T09:24:40.628Z,1000.05
2018-11-20T09:25:40.691Z,1000.17
2018-11-20T09:26:40.621Z,1000.15
2018-11-20T09:27:40.599Z,1000.15
2018-11-20T09:28:40.584Z,1000.05
2018-11-20T09:29:40.577Z,1000.16
2018-11-20T09:30:40.577Z,1000.19
2018-11-20T09:31:40.569Z,1000.23
2018-11-20T09:32:40.543Z,1000.15
2018-11-20T09:33:40.532Z,1000.16
2018-11-20T09:34:40.545Z,1000.15
2018-11-20T09:35:40.629Z,1000.14
2018-11-20T09:36:40.536Z,1000.17
2018-11-20T09:37:40.488Z,1000.09
2018-11-20T09:38:40.477Z,1000.14
2018-11-20T09:39:40.467Z,1000.12
2018-11-20T09:40:40.456Z,1000.15
2018-11-20T09:41:40.444Z,1000.27
2018-11-20T09:42:40.446Z,1000.23
2018-11-20T09:43:40.422Z,1000.15
2018-11-20T09:44:40.414Z,1000.14
2018-11-20T09:45:40.407Z,1000.21
2018-11-20T09:46:40.471Z,1000.20
2018-11-20T09:47:40.390Z,1000.12
2018-11-20T09:48:40.368Z,1000.08
2018-11-20T09:49:40.357Z,1000.15
2018-11-20T09:50:40.348Z,1000.08
2018-11-20T09:51:40.349Z,1000.00
2018-11-20T09:52:40.379Z,1000.02
2018-11-20T09:53:40.314Z,999.94
2018-11-20T09:54:40.302Z,999.94
2018-11-20T09:55:40.293Z,999.98
2018-11-20T09:56:40.281Z,999.89
2018-11-20T09:57:40.286Z,999.94
2018-11-20T09:58:40.274Z,999.86
2018-11-20T09:59:40.261Z,999.79
